KORD/ORD METAR and TAF weather

Enter ICAO airport designator
Station Type Date Time Source
KORD METAR 2019/12/09 13:51 UTC NOAA

KORD 091351Z 23008KT 6SM BR OVC007 07/07 A2952 RMK AO2 SLP000 T00720067


Station Type Date Time Source
KORD Decoded METAR 2019/12/09 13:51 UTC NOAA

CHICAGO O'HARE INTERNATIONAL, IL, United States (KORD) 41-59N 087-55W 200M
Dec 09, 2019 - 08:51 AM EST / 2019.12.09 1351 UTC
Wind: from the SW (230 degrees) at 9 MPH (8 KT):0
Visibility: 6 mile(s):0
Sky conditions: overcast
Weather: mist
Temperature: 45.0 F (7.2 C)
Dew Point: 44.1 F (6.7 C)
Relative Humidity: 96%
Pressure (altimeter): 29.52 in. Hg (999 hPa)
ob: KORD 091351Z 23008KT 6SM BR OVC007 07/07 A2952 RMK AO2 SLP000 T00720067
cycle: 14

Station Type Date Time Source
KORD TAF 2019/12/09 14:57 UTC NOAA

TAF
AMD KORD 091355Z 0914/1018 23008KT 5SM -DZ BR VCSH OVC007
TEMPO 0914/0916 3SM -DZ BR OVC005
FM091800 24010KT P6SM OVC007
FM092300 29019G30KT P6SM OVC015 PROB30 0923/1001 4SM -SHRA
FM100400 29015G25KT P6SM BKN025
FM100900 29012G18KT P6SM SCT025

Example: see airport list